sensor_id;sensor_type;location;lat;lon;timestamp;P1;durP1;ratioP1;P2;durP2;ratioP2
2656;SDS011;1338;48.176;11.792;2023-07-20T00:01:21;5.87;;;4.97;;
2656;SDS011;1338;48.176;11.792;2023-07-20T00:03:50;5.03;;;4.63;;
2656;SDS011;1338;48.176;11.792;2023-07-20T00:06:22;5.53;;;5.03;;
2656;SDS011;1338;48.176;11.792;2023-07-20T00:08:52;4.80;;;4.40;;
2656;SDS011;1338;48.176;11.792;2023-07-20T00:11:21;4.80;;;4.40;;
2656;SDS011;1338;48.176;11.792;2023-07-20T00:13:50;5.03;;;4.60;;
2656;SDS011;1338;48.176;11.792;2023-07-20T00:16:21;4.30;;;3.93;;
2656;SDS011;1338;48.176;11.792;2023-07-20T00:18:53;7.70;;;4.63;;
2656;SDS011;1338;48.176;11.792;2023-07-20T00:21:21;4.10;;;3.70;;
2656;SDS011;1338;48.176;11.792;2023-07-20T00:23:50;5.00;;;3.87;;
2656;SDS011;1338;48.176;11.792;2023-07-20T00:26:18;4.20;;;3.90;;
2656;SDS011;1338;48.176;11.792;2023-07-20T00:28:49;4.80;;;4.30;;
2656;SDS011;1338;48.176;11.792;2023-07-20T00:31:21;4.47;;;3.47;;
2656;SDS011;1338;48.176;11.792;2023-07-20T00:33:49;4.73;;;4.33;;
2656;SDS011;1338;48.176;11.792;2023-07-20T00:36:18;4.30;;;3.90;;
2656;SDS011;1338;48.176;11.792;2023-07-20T00:38:48;4.10;;;3.70;;
2656;SDS011;1338;48.176;11.792;2023-07-20T00:41:16;6.20;;;3.47;;
2656;SDS011;1338;48.176;11.792;2023-07-20T00:43:45;4.27;;;3.87;;
2656;SDS011;1338;48.176;11.792;2023-07-20T00:46:14;4.30;;;3.67;;
2656;SDS011;1338;48.176;11.792;2023-07-20T00:48:45;4.40;;;3.73;;
2656;SDS011;1338;48.176;11.792;2023-07-20T00:51:14;4.07;;;3.77;;
2656;SDS011;1338;48.176;11.792;2023-07-20T00:53:45;4.20;;;3.80;;
2656;SDS011;1338;48.176;11.792;2023-07-20T00:56:14;5.20;;;3.70;;
2656;SDS011;1338;48.176;11.792;2023-07-20T00:58:44;3.70;;;3.40;;
2656;SDS011;1338;48.176;11.792;2023-07-20T01:01:14;3.63;;;3.33;;
2656;SDS011;1338;48.176;11.792;2023-07-20T01:03:44;4.30;;;3.87;;
2656;SDS011;1338;48.176;11.792;2023-07-20T01:06:15;3.57;;;3.27;;
2656;SDS011;1338;48.176;11.792;2023-07-20T01:08:56;4.60;;;4.10;;
2656;SDS011;1338;48.176;11.792;2023-07-20T01:11:32;4.37;;;3.93;;
2656;SDS011;1338;48.176;11.792;2023-07-20T01:14:06;4.10;;;3.70;;
2656;SDS011;1338;48.176;11.792;2023-07-20T01:16:35;3.83;;;3.53;;
2656;SDS011;1338;48.176;11.792;2023-07-20T01:19:05;4.47;;;4.07;;
2656;SDS011;1338;48.176;11.792;2023-07-20T01:21:38;4.53;;;3.50;;
2656;SDS011;1338;48.176;11.792;2023-07-20T01:24:33;3.70;;;3.40;;
2656;SDS011;1338;48.176;11.792;2023-07-20T01:30:35;4.43;;;4.07;;
2656;SDS011;1338;48.176;11.792;2023-07-20T01:33:18;4.30;;;3.90;;
2656;SDS011;1338;48.176;11.792;2023-07-20T01:35:51;4.13;;;3.83;;
2656;SDS011;1338;48.176;11.792;2023-07-20T01:38:23;4.67;;;3.63;;
2656;SDS011;1338;48.176;11.792;2023-07-20T01:40:52;4.13;;;3.80;;
2656;SDS011;1338;48.176;11.792;2023-07-20T01:43:21;4.23;;;3.83;;
2656;SDS011;1338;48.176;11.792;2023-07-20T01:45:52;4.00;;;3.60;;
2656;SDS011;1338;48.176;11.792;2023-07-20T01:48:22;4.20;;;3.80;;
2656;SDS011;1338;48.176;11.792;2023-07-20T01:50:51;4.20;;;3.80;;
2656;SDS011;1338;48.176;11.792;2023-07-20T01:53:21;5.23;;;3.67;;
2656;SDS011;1338;48.176;11.792;2023-07-20T01:55:52;4.03;;;3.53;;
2656;SDS011;1338;48.176;11.792;2023-07-20T01:58:21;4.27;;;3.87;;
2656;SDS011;1338;48.176;11.792;2023-07-20T02:00:50;4.07;;;3.77;;
2656;SDS011;1338;48.176;11.792;2023-07-20T02:03:20;4.17;;;3.87;;
2656;SDS011;1338;48.176;11.792;2023-07-20T02:05:54;4.30;;;4.00;;
2656;SDS011;1338;48.176;11.792;2023-07-20T02:08:24;3.53;;;3.23;;
2656;SDS011;1338;48.176;11.792;2023-07-20T02:10:56;4.97;;;3.97;;
2656;SDS011;1338;48.176;11.792;2023-07-20T02:13:30;3.03;;;2.83;;
2656;SDS011;1338;48.176;11.792;2023-07-20T02:15:59;5.47;;;3.73;;
2656;SDS011;1338;48.176;11.792;2023-07-20T02:18:30;4.60;;;4.20;;
2656;SDS011;1338;48.176;11.792;2023-07-20T02:21:02;5.13;;;3.87;;
2656;SDS011;1338;48.176;11.792;2023-07-20T02:23:32;4.33;;;3.90;;
2656;SDS011;1338;48.176;11.792;2023-07-20T02:26:03;4.27;;;3.70;;
2656;SDS011;1338;48.176;11.792;2023-07-20T02:28:32;4.10;;;3.70;;
2656;SDS011;1338;48.176;11.792;2023-07-20T02:31:02;3.97;;;3.57;;
2656;SDS011;1338;48.176;11.792;2023-07-20T02:33:32;3.67;;;3.37;;
2656;SDS011;1338;48.176;11.792;2023-07-20T02:36:02;3.13;;;2.93;;
2656;SDS011;1338;48.176;11.792;2023-07-20T02:38:31;3.57;;;3.27;;
2656;SDS011;1338;48.176;11.792;2023-07-20T02:41:00;3.40;;;3.10;;
2656;SDS011;1338;48.176;11.792;2023-07-20T02:43:32;3.37;;;3.10;;
2656;SDS011;1338;48.176;11.792;2023-07-20T02:46:00;3.50;;;3.20;;
2656;SDS011;1338;48.176;11.792;2023-07-20T02:48:29;3.27;;;3.07;;
2656;SDS011;1338;48.176;11.792;2023-07-20T02:50:59;3.03;;;2.80;;
2656;SDS011;1338;48.176;11.792;2023-07-20T02:53:30;3.33;;;3.13;;
2656;SDS011;1338;48.176;11.792;2023-07-20T02:55:59;5.00;;;3.10;;
2656;SDS011;1338;48.176;11.792;2023-07-20T02:58:28;3.23;;;2.93;;
2656;SDS011;1338;48.176;11.792;2023-07-20T03:00:57;3.00;;;2.83;;
2656;SDS011;1338;48.176;11.792;2023-07-20T03:03:26;3.37;;;3.07;;
2656;SDS011;1338;48.176;11.792;2023-07-20T03:05:55;3.17;;;2.97;;
2656;SDS011;1338;48.176;11.792;2023-07-20T03:08:26;2.90;;;2.70;;
2656;SDS011;1338;48.176;11.792;2023-07-20T03:10:57;3.80;;;3.10;;
2656;SDS011;1338;48.176;11.792;2023-07-20T03:13:28;4.00;;;3.10;;
2656;SDS011;1338;48.176;11.792;2023-07-20T03:15:57;3.40;;;3.20;;
2656;SDS011;1338;48.176;11.792;2023-07-20T03:18:27;3.37;;;3.03;;
2656;SDS011;1338;48.176;11.792;2023-07-20T03:20:56;3.00;;;2.80;;
2656;SDS011;1338;48.176;11.792;2023-07-20T03:23:29;3.00;;;2.80;;
2656;SDS011;1338;48.176;11.792;2023-07-20T03:26:00;4.20;;;3.40;;
2656;SDS011;1338;48.176;11.792;2023-07-20T03:28:30;3.70;;;3.40;;
2656;SDS011;1338;48.176;11.792;2023-07-20T03:30:59;4.20;;;3.27;;
2656;SDS011;1338;48.176;11.792;2023-07-20T03:33:30;3.77;;;3.47;;
2656;SDS011;1338;48.176;11.792;2023-07-20T03:36:01;3.17;;;2.90;;
2656;SDS011;1338;48.176;11.792;2023-07-20T03:38:31;3.10;;;2.90;;
2656;SDS011;1338;48.176;11.792;2023-07-20T03:41:04;2.80;;;2.60;;
2656;SDS011;1338;48.176;11.792;2023-07-20T03:43:35;3.50;;;3.27;;
2656;SDS011;1338;48.176;11.792;2023-07-20T03:46:04;2.73;;;2.53;;
2656;SDS011;1338;48.176;11.792;2023-07-20T03:48:34;2.40;;;2.20;;
2656;SDS011;1338;48.176;11.792;2023-07-20T03:51:03;3.07;;;2.77;;
2656;SDS011;1338;48.176;11.792;2023-07-20T03:53:32;3.60;;;3.20;;
2656;SDS011;1338;48.176;11.792;2023-07-20T03:56:02;3.50;;;3.20;;
2656;SDS011;1338;48.176;11.792;2023-07-20T03:58:32;3.73;;;3.33;;
2656;SDS011;1338;48.176;11.792;2023-07-20T04:01:01;3.90;;;3.30;;
2656;SDS011;1338;48.176;11.792;2023-07-20T04:03:30;3.70;;;3.40;;
2656;SDS011;1338;48.176;11.792;2023-07-20T04:06:02;3.40;;;3.10;;
2656;SDS011;1338;48.176;11.792;2023-07-20T04:08:31;3.37;;;3.07;;
2656;SDS011;1338;48.176;11.792;2023-07-20T04:11:01;2.93;;;2.67;;
2656;SDS011;1338;48.176;11.792;2023-07-20T04:13:31;3.30;;;3.00;;
2656;SDS011;1338;48.176;11.792;2023-07-20T04:16:02;3.47;;;3.17;;
2656;SDS011;1338;48.176;11.792;2023-07-20T04:18:31;4.03;;;3.10;;
2656;SDS011;1338;48.176;11.792;2023-07-20T04:21:02;3.43;;;3.13;;
2656;SDS011;1338;48.176;11.792;2023-07-20T04:23:31;3.70;;;3.30;;
2656;SDS011;1338;48.176;11.792;2023-07-20T04:26:00;3.30;;;3.00;;
2656;SDS011;1338;48.176;11.792;2023-07-20T04:28:30;3.57;;;3.27;;
2656;SDS011;1338;48.176;11.792;2023-07-20T04:31:09;3.30;;;3.10;;
2656;SDS011;1338;48.176;11.792;2023-07-20T04:33:38;3.43;;;3.10;;
2656;SDS011;1338;48.176;11.792;2023-07-20T04:36:08;3.43;;;3.13;;
2656;SDS011;1338;48.176;11.792;2023-07-20T04:38:37;3.47;;;3.17;;
2656;SDS011;1338;48.176;11.792;2023-07-20T04:41:12;3.27;;;2.97;;
2656;SDS011;1338;48.176;11.792;2023-07-20T04:43:47;3.00;;;2.80;;
2656;SDS011;1338;48.176;11.792;2023-07-20T04:46:23;3.43;;;3.13;;
2656;SDS011;1338;48.176;11.792;2023-07-20T04:48:52;3.40;;;3.10;;
2656;SDS011;1338;48.176;11.792;2023-07-20T04:51:21;3.53;;;3.03;;
2656;SDS011;1338;48.176;11.792;2023-07-20T04:53:56;3.33;;;3.10;;
2656;SDS011;1338;48.176;11.792;2023-07-20T04:56:29;3.03;;;2.73;;
2656;SDS011;1338;48.176;11.792;2023-07-20T04:58:59;3.10;;;2.90;;
2656;SDS011;1338;48.176;11.792;2023-07-20T05:01:28;4.70;;;2.90;;
2656;SDS011;1338;48.176;11.792;2023-07-20T05:03:58;3.43;;;3.10;;
2656;SDS011;1338;48.176;11.792;2023-07-20T05:06:26;3.50;;;2.93;;
2656;SDS011;1338;48.176;11.792;2023-07-20T05:08:55;3.30;;;2.60;;
2656;SDS011;1338;48.176;11.792;2023-07-20T05:11:24;3.30;;;3.10;;
2656;SDS011;1338;48.176;11.792;2023-07-20T05:13:53;3.40;;;3.10;;
2656;SDS011;1338;48.176;11.792;2023-07-20T05:16:28;3.10;;;2.90;;
2656;SDS011;1338;48.176;11.792;2023-07-20T05:19:01;3.67;;;3.23;;
2656;SDS011;1338;48.176;11.792;2023-07-20T05:21:31;6.23;;;3.37;;
2656;SDS011;1338;48.176;11.792;2023-07-20T05:24:02;3.13;;;2.93;;
2656;SDS011;1338;48.176;11.792;2023-07-20T05:26:33;3.27;;;2.97;;
2656;SDS011;1338;48.176;11.792;2023-07-20T05:29:03;3.67;;;3.37;;
2656;SDS011;1338;48.176;11.792;2023-07-20T05:31:37;3.40;;;3.10;;
2656;SDS011;1338;48.176;11.792;2023-07-20T05:34:06;4.50;;;3.47;;
2656;SDS011;1338;48.176;11.792;2023-07-20T05:36:35;3.00;;;2.80;;
2656;SDS011;1338;48.176;11.792;2023-07-20T05:39:05;3.63;;;2.97;;
2656;SDS011;1338;48.176;11.792;2023-07-20T05:41:34;3.23;;;2.97;;
2656;SDS011;1338;48.176;11.792;2023-07-20T05:44:03;3.30;;;3.10;;
2656;SDS011;1338;48.176;11.792;2023-07-20T05:46:31;2.97;;;2.77;;
2656;SDS011;1338;48.176;11.792;2023-07-20T05:49:19;3.00;;;2.80;;
2656;SDS011;1338;48.176;11.792;2023-07-20T05:51:49;3.17;;;2.87;;
2656;SDS011;1338;48.176;11.792;2023-07-20T05:54:21;3.10;;;2.90;;
2656;SDS011;1338;48.176;11.792;2023-07-20T05:56:50;3.60;;;3.30;;
2656;SDS011;1338;48.176;11.792;2023-07-20T05:59:21;3.73;;;3.40;;
2656;SDS011;1338;48.176;11.792;2023-07-20T06:01:52;3.27;;;2.97;;
2656;SDS011;1338;48.176;11.792;2023-07-20T06:04:25;3.33;;;3.00;;
2656;SDS011;1338;48.176;11.792;2023-07-20T06:06:55;2.60;;;2.40;;
2656;SDS011;1338;48.176;11.792;2023-07-20T06:09:27;3.20;;;2.90;;
2656;SDS011;1338;48.176;11.792;2023-07-20T06:11:57;3.10;;;2.80;;
2656;SDS011;1338;48.176;11.792;2023-07-20T06:14:25;3.30;;;3.00;;
2656;SDS011;1338;48.176;11.792;2023-07-20T06:16:54;4.00;;;3.10;;
2656;SDS011;1338;48.176;11.792;2023-07-20T06:19:27;3.43;;;3.13;;
2656;SDS011;1338;48.176;11.792;2023-07-20T06:22:02;3.37;;;2.97;;
2656;SDS011;1338;48.176;11.792;2023-07-20T06:24:31;3.30;;;3.00;;
2656;SDS011;1338;48.176;11.792;2023-07-20T06:27:00;3.57;;;2.97;;
2656;SDS011;1338;48.176;11.792;2023-07-20T06:29:29;3.23;;;2.63;;
2656;SDS011;1338;48.176;11.792;2023-07-20T06:31:59;3.30;;;3.00;;
2656;SDS011;1338;48.176;11.792;2023-07-20T06:34:29;3.20;;;3.00;;
2656;SDS011;1338;48.176;11.792;2023-07-20T06:37:03;3.10;;;2.90;;
2656;SDS011;1338;48.176;11.792;2023-07-20T06:39:32;3.10;;;2.80;;
2656;SDS011;1338;48.176;11.792;2023-07-20T06:42:05;3.03;;;2.60;;
2656;SDS011;1338;48.176;11.792;2023-07-20T06:44:37;3.03;;;2.83;;
2656;SDS011;1338;48.176;11.792;2023-07-20T06:47:06;3.30;;;3.00;;
2656;SDS011;1338;48.176;11.792;2023-07-20T06:49:36;3.30;;;2.40;;
2656;SDS011;1338;48.176;11.792;2023-07-20T06:52:05;3.33;;;3.03;;
2656;SDS011;1338;48.176;11.792;2023-07-20T06:54:34;3.00;;;2.70;;
2656;SDS011;1338;48.176;11.792;2023-07-20T06:57:09;3.63;;;3.20;;
2656;SDS011;1338;48.176;11.792;2023-07-20T06:59:40;3.10;;;2.80;;
2656;SDS011;1338;48.176;11.792;2023-07-20T07:02:12;3.60;;;3.30;;
2656;SDS011;1338;48.176;11.792;2023-07-20T07:04:43;3.07;;;2.87;;
2656;SDS011;1338;48.176;11.792;2023-07-20T07:07:13;3.27;;;2.97;;
2656;SDS011;1338;48.176;11.792;2023-07-20T07:09:52;3.77;;;3.27;;
2656;SDS011;1338;48.176;11.792;2023-07-20T07:12:22;2.93;;;2.73;;
2656;SDS011;1338;48.176;11.792;2023-07-20T07:14:51;3.30;;;3.00;;
2656;SDS011;1338;48.176;11.792;2023-07-20T07:17:20;3.67;;;3.37;;
2656;SDS011;1338;48.176;11.792;2023-07-20T07:19:53;2.90;;;2.70;;
2656;SDS011;1338;48.176;11.792;2023-07-20T07:22:24;3.33;;;2.90;;
2656;SDS011;1338;48.176;11.792;2023-07-20T07:24:53;2.93;;;2.73;;
2656;SDS011;1338;48.176;11.792;2023-07-20T07:27:21;3.90;;;2.90;;
2656;SDS011;1338;48.176;11.792;2023-07-20T07:29:50;2.80;;;2.60;;
2656;SDS011;1338;48.176;11.792;2023-07-20T07:32:19;3.43;;;3.13;;
2656;SDS011;1338;48.176;11.792;2023-07-20T07:34:48;3.17;;;2.97;;
2656;SDS011;1338;48.176;11.792;2023-07-20T07:37:18;3.30;;;2.83;;
2656;SDS011;1338;48.176;11.792;2023-07-20T07:39:50;3.13;;;2.93;;
2656;SDS011;1338;48.176;11.792;2023-07-20T07:42:19;3.47;;;2.97;;
2656;SDS011;1338;48.176;11.792;2023-07-20T07:44:50;2.97;;;2.70;;
2656;SDS011;1338;48.176;11.792;2023-07-20T07:47:19;3.13;;;2.87;;
2656;SDS011;1338;48.176;11.792;2023-07-20T07:49:48;3.67;;;2.83;;
2656;SDS011;1338;48.176;11.792;2023-07-20T07:52:20;3.13;;;2.90;;
2656;SDS011;1338;48.176;11.792;2023-07-20T07:54:49;2.80;;;2.53;;
2656;SDS011;1338;48.176;11.792;2023-07-20T07:57:18;2.90;;;2.70;;
2656;SDS011;1338;48.176;11.792;2023-07-20T07:59:47;3.20;;;2.43;;
2656;SDS011;1338;48.176;11.792;2023-07-20T08:02:16;2.90;;;2.70;;
2656;SDS011;1338;48.176;11.792;2023-07-20T08:04:46;2.70;;;2.50;;
2656;SDS011;1338;48.176;11.792;2023-07-20T08:07:14;3.10;;;2.80;;
2656;SDS011;1338;48.176;11.792;2023-07-20T08:09:44;3.40;;;3.10;;
2656;SDS011;1338;48.176;11.792;2023-07-20T08:12:12;2.97;;;2.77;;
2656;SDS011;1338;48.176;11.792;2023-07-20T08:14:44;3.83;;;2.80;;
2656;SDS011;1338;48.176;11.792;2023-07-20T08:17:15;4.70;;;2.93;;
2656;SDS011;1338;48.176;11.792;2023-07-20T08:19:43;3.03;;;2.63;;
2656;SDS011;1338;48.176;11.792;2023-07-20T08:22:12;2.50;;;2.30;;
2656;SDS011;1338;48.176;11.792;2023-07-20T08:24:41;3.03;;;2.83;;
2656;SDS011;1338;48.176;11.792;2023-07-20T08:27:11;2.70;;;2.50;;
2656;SDS011;1338;48.176;11.792;2023-07-20T08:29:39;2.70;;;2.37;;
2656;SDS011;1338;48.176;11.792;2023-07-20T08:32:08;3.20;;;2.90;;
2656;SDS011;1338;48.176;11.792;2023-07-20T08:34:36;2.80;;;2.60;;
2656;SDS011;1338;48.176;11.792;2023-07-20T08:37:05;2.90;;;2.70;;
2656;SDS011;1338;48.176;11.792;2023-07-20T08:39:36;2.93;;;2.70;;
2656;SDS011;1338;48.176;11.792;2023-07-20T08:42:05;2.90;;;2.67;;
2656;SDS011;1338;48.176;11.792;2023-07-20T08:44:35;3.33;;;2.70;;
2656;SDS011;1338;48.176;11.792;2023-07-20T08:47:05;3.80;;;2.63;;
2656;SDS011;1338;48.176;11.792;2023-07-20T08:49:35;3.10;;;2.80;;
2656;SDS011;1338;48.176;11.792;2023-07-20T08:52:05;3.10;;;2.80;;
2656;SDS011;1338;48.176;11.792;2023-07-20T08:54:34;2.90;;;2.70;;
2656;SDS011;1338;48.176;11.792;2023-07-20T08:57:04;2.80;;;2.60;;
2656;SDS011;1338;48.176;11.792;2023-07-20T08:59:34;3.07;;;2.70;;
2656;SDS011;1338;48.176;11.792;2023-07-20T09:02:06;2.73;;;2.53;;
2656;SDS011;1338;48.176;11.792;2023-07-20T09:04:44;4.60;;;2.60;;
2656;SDS011;1338;48.176;11.792;2023-07-20T09:07:12;3.00;;;2.70;;
2656;SDS011;1338;48.176;11.792;2023-07-20T09:09:42;3.07;;;2.87;;
2656;SDS011;1338;48.176;11.792;2023-07-20T09:12:14;3.13;;;2.57;;
2656;SDS011;1338;48.176;11.792;2023-07-20T09:14:44;2.90;;;2.70;;
2656;SDS011;1338;48.176;11.792;2023-07-20T09:17:13;2.90;;;2.60;;
2656;SDS011;1338;48.176;11.792;2023-07-20T09:19:47;2.93;;;2.60;;
2656;SDS011;1338;48.176;11.792;2023-07-20T09:22:16;2.60;;;2.43;;
2656;SDS011;1338;48.176;11.792;2023-07-20T09:24:45;2.67;;;2.47;;
2656;SDS011;1338;48.176;11.792;2023-07-20T09:27:14;3.23;;;2.93;;
2656;SDS011;1338;48.176;11.792;2023-07-20T09:29:51;3.47;;;2.87;;
2656;SDS011;1338;48.176;11.792;2023-07-20T09:32:21;2.80;;;2.60;;
2656;SDS011;1338;48.176;11.792;2023-07-20T09:34:51;2.73;;;2.53;;
2656;SDS011;1338;48.176;11.792;2023-07-20T09:37:20;3.07;;;2.83;;
2656;SDS011;1338;48.176;11.792;2023-07-20T09:39:51;2.93;;;2.63;;
2656;SDS011;1338;48.176;11.792;2023-07-20T09:42:23;2.83;;;2.63;;
2656;SDS011;1338;48.176;11.792;2023-07-20T09:44:58;3.00;;;2.80;;
2656;SDS011;1338;48.176;11.792;2023-07-20T09:47:27;2.90;;;2.70;;
2656;SDS011;1338;48.176;11.792;2023-07-20T09:49:58;2.83;;;2.63;;
2656;SDS011;1338;48.176;11.792;2023-07-20T09:52:30;2.73;;;2.53;;
2656;SDS011;1338;48.176;11.792;2023-07-20T09:55:02;3.10;;;2.90;;
2656;SDS011;1338;48.176;11.792;2023-07-20T09:57:32;3.10;;;2.77;;
2656;SDS011;1338;48.176;11.792;2023-07-20T10:00:02;2.70;;;2.50;;
2656;SDS011;1338;48.176;11.792;2023-07-20T10:02:42;2.87;;;2.67;;
2656;SDS011;1338;48.176;11.792;2023-07-20T10:05:12;2.37;;;2.17;;
2656;SDS011;1338;48.176;11.792;2023-07-20T10:07:43;2.50;;;2.30;;
2656;SDS011;1338;48.176;11.792;2023-07-20T10:10:14;2.60;;;2.40;;
2656;SDS011;1338;48.176;11.792;2023-07-20T10:12:44;3.33;;;2.80;;
2656;SDS011;1338;48.176;11.792;2023-07-20T10:15:18;3.13;;;2.73;;
2656;SDS011;1338;48.176;11.792;2023-07-20T10:17:57;2.73;;;2.53;;
2656;SDS011;1338;48.176;11.792;2023-07-20T10:20:32;2.70;;;2.50;;
2656;SDS011;1338;48.176;11.792;2023-07-20T10:23:03;2.90;;;2.70;;
2656;SDS011;1338;48.176;11.792;2023-07-20T10:25:32;3.73;;;2.33;;
2656;SDS011;1338;48.176;11.792;2023-07-20T10:28:04;2.90;;;2.70;;
2656;SDS011;1338;48.176;11.792;2023-07-20T10:30:35;2.70;;;2.50;;
2656;SDS011;1338;48.176;11.792;2023-07-20T10:33:04;2.90;;;2.60;;
2656;SDS011;1338;48.176;11.792;2023-07-20T10:35:50;2.77;;;2.57;;
2656;SDS011;1338;48.176;11.792;2023-07-20T10:38:19;2.80;;;2.60;;
2656;SDS011;1338;48.176;11.792;2023-07-20T10:41:15;2.67;;;2.47;;
2656;SDS011;1338;48.176;11.792;2023-07-20T10:43:46;2.70;;;2.50;;
2656;SDS011;1338;48.176;11.792;2023-07-20T10:46:34;2.73;;;2.53;;
2656;SDS011;1338;48.176;11.792;2023-07-20T10:49:10;4.13;;;3.53;;
2656;SDS011;1338;48.176;11.792;2023-07-20T10:51:41;3.20;;;2.70;;
2656;SDS011;1338;48.176;11.792;2023-07-20T10:57:22;4.13;;;2.93;;
2656;SDS011;1338;48.176;11.792;2023-07-20T11:00:08;3.63;;;2.80;;
2656;SDS011;1338;48.176;11.792;2023-07-20T11:02:43;3.03;;;2.73;;
2656;SDS011;1338;48.176;11.792;2023-07-20T11:05:32;3.23;;;3.00;;
2656;SDS011;1338;48.176;11.792;2023-07-20T11:08:03;3.37;;;2.90;;
2656;SDS011;1338;48.176;11.792;2023-07-20T11:10:33;3.10;;;2.83;;
2656;SDS011;1338;48.176;11.792;2023-07-20T11:13:16;3.30;;;3.10;;
2656;SDS011;1338;48.176;11.792;2023-07-20T11:16:01;3.70;;;2.77;;
2656;SDS011;1338;48.176;11.792;2023-07-20T11:18:34;2.97;;;2.77;;
2656;SDS011;1338;48.176;11.792;2023-07-20T11:21:10;2.90;;;2.70;;
2656;SDS011;1338;48.176;11.792;2023-07-20T11:23:39;3.00;;;2.70;;
2656;SDS011;1338;48.176;11.792;2023-07-20T11:26:08;3.20;;;2.90;;
2656;SDS011;1338;48.176;11.792;2023-07-20T11:28:38;2.93;;;2.70;;
2656;SDS011;1338;48.176;11.792;2023-07-20T11:31:07;4.77;;;2.90;;
2656;SDS011;1338;48.176;11.792;2023-07-20T11:33:37;3.20;;;2.93;;
2656;SDS011;1338;48.176;11.792;2023-07-20T11:36:06;3.80;;;2.80;;
2656;SDS011;1338;48.176;11.792;2023-07-20T11:38:40;2.97;;;2.77;;
2656;SDS011;1338;48.176;11.792;2023-07-20T11:41:11;3.40;;;3.10;;
2656;SDS011;1338;48.176;11.792;2023-07-20T11:43:40;3.20;;;2.90;;
2656;SDS011;1338;48.176;11.792;2023-07-20T11:46:09;3.27;;;2.97;;
2656;SDS011;1338;48.176;11.792;2023-07-20T11:48:42;2.80;;;2.60;;
2656;SDS011;1338;48.176;11.792;2023-07-20T11:51:14;3.10;;;2.80;;
2656;SDS011;1338;48.176;11.792;2023-07-20T11:53:44;3.20;;;2.90;;
2656;SDS011;1338;48.176;11.792;2023-07-20T11:56:14;3.07;;;2.77;;
2656;SDS011;1338;48.176;11.792;2023-07-20T11:58:43;2.80;;;2.60;;
2656;SDS011;1338;48.176;11.792;2023-07-20T12:01:12;3.43;;;3.13;;
2656;SDS011;1338;48.176;11.792;2023-07-20T12:03:43;3.10;;;2.90;;
2656;SDS011;1338;48.176;11.792;2023-07-20T12:06:12;3.10;;;2.90;;
2656;SDS011;1338;48.176;11.792;2023-07-20T12:08:42;3.00;;;2.80;;
2656;SDS011;1338;48.176;11.792;2023-07-20T12:11:11;2.90;;;2.70;;
2656;SDS011;1338;48.176;11.792;2023-07-20T12:13:41;3.37;;;3.07;;
2656;SDS011;1338;48.176;11.792;2023-07-20T12:16:11;3.60;;;3.37;;
2656;SDS011;1338;48.176;11.792;2023-07-20T12:18:43;3.27;;;2.97;;
2656;SDS011;1338;48.176;11.792;2023-07-20T12:21:12;3.40;;;3.20;;
2656;SDS011;1338;48.176;11.792;2023-07-20T12:23:41;2.80;;;2.60;;
2656;SDS011;1338;48.176;11.792;2023-07-20T12:26:10;3.80;;;3.20;;
2656;SDS011;1338;48.176;11.792;2023-07-20T12:28:43;3.20;;;2.90;;
2656;SDS011;1338;48.176;11.792;2023-07-20T12:31:12;3.60;;;2.80;;
2656;SDS011;1338;48.176;11.792;2023-07-20T12:33:43;3.27;;;2.90;;
2656;SDS011;1338;48.176;11.792;2023-07-20T12:36:12;2.73;;;2.53;;
2656;SDS011;1338;48.176;11.792;2023-07-20T12:38:41;2.83;;;2.63;;
2656;SDS011;1338;48.176;11.792;2023-07-20T12:41:10;3.20;;;2.90;;
2656;SDS011;1338;48.176;11.792;2023-07-20T12:43:41;2.97;;;2.77;;
2656;SDS011;1338;48.176;11.792;2023-07-20T12:46:12;3.20;;;3.00;;
2656;SDS011;1338;48.176;11.792;2023-07-20T12:48:43;3.50;;;3.20;;
2656;SDS011;1338;48.176;11.792;2023-07-20T12:51:15;2.77;;;2.57;;
2656;SDS011;1338;48.176;11.792;2023-07-20T12:53:46;3.47;;;3.23;;
2656;SDS011;1338;48.176;11.792;2023-07-20T12:56:16;2.80;;;2.60;;
2656;SDS011;1338;48.176;11.792;2023-07-20T12:58:47;3.10;;;2.90;;
2656;SDS011;1338;48.176;11.792;2023-07-20T13:01:16;2.33;;;2.13;;
2656;SDS011;1338;48.176;11.792;2023-07-20T13:03:47;3.13;;;2.93;;
2656;SDS011;1338;48.176;11.792;2023-07-20T13:06:19;3.33;;;2.73;;
2656;SDS011;1338;48.176;11.792;2023-07-20T13:08:51;3.30;;;3.00;;
2656;SDS011;1338;48.176;11.792;2023-07-20T13:11:23;3.00;;;2.80;;
2656;SDS011;1338;48.176;11.792;2023-07-20T13:13:52;3.40;;;3.10;;
2656;SDS011;1338;48.176;11.792;2023-07-20T13:16:20;2.90;;;2.70;;
2656;SDS011;1338;48.176;11.792;2023-07-20T13:18:51;3.07;;;2.77;;
2656;SDS011;1338;48.176;11.792;2023-07-20T13:21:19;3.40;;;3.10;;
2656;SDS011;1338;48.176;11.792;2023-07-20T13:23:51;3.33;;;3.13;;
2656;SDS011;1338;48.176;11.792;2023-07-20T13:26:20;3.13;;;2.93;;
2656;SDS011;1338;48.176;11.792;2023-07-20T13:28:50;3.17;;;2.80;;
2656;SDS011;1338;48.176;11.792;2023-07-20T13:31:21;2.80;;;2.60;;
2656;SDS011;1338;48.176;11.792;2023-07-20T13:33:52;2.80;;;2.60;;
2656;SDS011;1338;48.176;11.792;2023-07-20T13:36:25;3.20;;;3.00;;
2656;SDS011;1338;48.176;11.792;2023-07-20T13:38:56;3.00;;;2.73;;
2656;SDS011;1338;48.176;11.792;2023-07-20T13:41:25;2.77;;;2.57;;
2656;SDS011;1338;48.176;11.792;2023-07-20T13:43:55;2.67;;;2.47;;
2656;SDS011;1338;48.176;11.792;2023-07-20T13:46:24;3.37;;;3.07;;
2656;SDS011;1338;48.176;11.792;2023-07-20T13:48:58;2.77;;;2.57;;
2656;SDS011;1338;48.176;11.792;2023-07-20T13:51:27;2.83;;;2.60;;
2656;SDS011;1338;48.176;11.792;2023-07-20T13:53:56;2.93;;;2.63;;
2656;SDS011;1338;48.176;11.792;2023-07-20T13:56:45;2.87;;;2.67;;
2656;SDS011;1338;48.176;11.792;2023-07-20T13:59:14;3.10;;;2.80;;
2656;SDS011;1338;48.176;11.792;2023-07-20T14:01:42;2.70;;;2.50;;
2656;SDS011;1338;48.176;11.792;2023-07-20T14:04:13;2.80;;;2.60;;
2656;SDS011;1338;48.176;11.792;2023-07-20T14:06:43;2.90;;;2.70;;
2656;SDS011;1338;48.176;11.792;2023-07-20T14:09:14;2.80;;;2.53;;
2656;SDS011;1338;48.176;11.792;2023-07-20T14:11:42;3.00;;;2.80;;
2656;SDS011;1338;48.176;11.792;2023-07-20T14:14:15;2.90;;;2.70;;
2656;SDS011;1338;48.176;11.792;2023-07-20T14:16:44;2.90;;;2.70;;
2656;SDS011;1338;48.176;11.792;2023-07-20T14:19:14;2.77;;;2.57;;
2656;SDS011;1338;48.176;11.792;2023-07-20T14:21:42;3.37;;;3.17;;
2656;SDS011;1338;48.176;11.792;2023-07-20T14:24:11;2.77;;;2.57;;
2656;SDS011;1338;48.176;11.792;2023-07-20T14:26:40;3.27;;;2.97;;
2656;SDS011;1338;48.176;11.792;2023-07-20T14:29:10;3.63;;;2.97;;
2656;SDS011;1338;48.176;11.792;2023-07-20T14:31:39;3.67;;;2.47;;
2656;SDS011;1338;48.176;11.792;2023-07-20T14:34:08;2.67;;;2.40;;
2656;SDS011;1338;48.176;11.792;2023-07-20T14:36:40;3.13;;;2.93;;
2656;SDS011;1338;48.176;11.792;2023-07-20T14:39:09;3.10;;;2.90;;
2656;SDS011;1338;48.176;11.792;2023-07-20T14:41:38;3.93;;;3.00;;
2656;SDS011;1338;48.176;11.792;2023-07-20T14:44:07;3.80;;;3.20;;
2656;SDS011;1338;48.176;11.792;2023-07-20T14:46:37;2.60;;;2.40;;
2656;SDS011;1338;48.176;11.792;2023-07-20T14:49:05;2.70;;;2.50;;
2656;SDS011;1338;48.176;11.792;2023-07-20T14:51:34;2.80;;;2.60;;
2656;SDS011;1338;48.176;11.792;2023-07-20T14:54:11;4.03;;;2.90;;
2656;SDS011;1338;48.176;11.792;2023-07-20T14:56:39;4.50;;;2.87;;
2656;SDS011;1338;48.176;11.792;2023-07-20T14:59:16;3.00;;;2.80;;
2656;SDS011;1338;48.176;11.792;2023-07-20T15:01:45;2.77;;;2.57;;
2656;SDS011;1338;48.176;11.792;2023-07-20T15:04:14;2.60;;;2.40;;
2656;SDS011;1338;48.176;11.792;2023-07-20T15:06:42;3.43;;;3.13;;
2656;SDS011;1338;48.176;11.792;2023-07-20T15:09:12;2.80;;;2.60;;
2656;SDS011;1338;48.176;11.792;2023-07-20T15:11:42;3.13;;;2.93;;
2656;SDS011;1338;48.176;11.792;2023-07-20T15:14:11;2.40;;;2.20;;
2656;SDS011;1338;48.176;11.792;2023-07-20T15:16:40;2.90;;;2.70;;
2656;SDS011;1338;48.176;11.792;2023-07-20T15:19:09;3.10;;;2.90;;
2656;SDS011;1338;48.176;11.792;2023-07-20T15:21:39;2.90;;;2.70;;
2656;SDS011;1338;48.176;11.792;2023-07-20T15:24:08;2.63;;;2.43;;
2656;SDS011;1338;48.176;11.792;2023-07-20T15:26:39;2.90;;;2.70;;
2656;SDS011;1338;48.176;11.792;2023-07-20T15:29:09;2.77;;;2.57;;